Time;durP1;ratioP1;P1;durP2;ratioP2;P2;SDS_P1;SDS_P2;PMS_P1;PMS_P2;Temp;Humidity;BMP_temperature;BMP_pressure;BME280_temperature;BME280_humidity;BME280_pressure;Samples;Min_cycle;Max_cycle;Signal;HPM_P1;HPM_P2
2022/04/02 00:01:41;;;;;;;4.47;4.13;;;1.30;99.90;;;;;;4980593;28;87576;-36
2022/04/02 00:04:10;;;;;;;4.53;3.55;;;1.20;99.90;;;;;;4980211;28;90211;-33
2022/04/02 00:06:36;;;;;;;4.00;3.70;;;1.20;99.90;;;;;;4979424;28;90332;-35
2022/04/02 00:09:02;;;;;;;4.63;3.97;;;1.20;99.90;;;;;;4980064;28;89507;-35
2022/04/02 00:11:28;;;;;;;6.68;4.43;;;1.20;99.90;;;;;;4980906;28;90571;-33
2022/04/02 00:13:54;;;;;;;6.50;4.72;;;1.10;99.90;;;;;;4979764;28;90721;-33
2022/04/02 00:16:19;;;;;;;5.07;4.20;;;1.10;99.90;;;;;;4980472;28;89009;-34
2022/04/02 00:18:45;;;;;;;4.93;4.18;;;1.00;99.90;;;;;;4979563;28;89333;-32
2022/04/02 00:21:11;;;;;;;4.88;4.30;;;1.00;99.90;;;;;;5032826;22;89314;-32
2022/04/02 00:23:39;;;;;;;9.43;4.78;;;1.00;99.90;;;;;;4999606;28;90756;-32
2022/04/02 00:26:07;;;;;;;5.75;4.72;;;1.00;99.90;;;;;;4999517;28;89736;-33
2022/04/02 00:28:34;;;;;;;6.10;4.70;;;1.00;99.90;;;;;;4999371;28;89599;-32
2022/04/02 00:30:59;;;;;;;4.40;4.00;;;0.90;99.90;;;;;;4999813;28;88056;-35
2022/04/02 00:33:25;;;;;;;6.28;4.40;;;0.90;99.90;;;;;;4999781;28;90308;-34
2022/04/02 00:35:50;;;;;;;8.63;5.15;;;0.90;99.90;;;;;;4998806;28;89634;-33
2022/04/02 00:38:16;;;;;;;3.97;3.58;;;0.90;99.90;;;;;;5000499;28;89625;-33
2022/04/02 00:40:42;;;;;;;5.10;4.28;;;0.80;99.90;;;;;;4999462;28;88464;-32
2022/04/02 00:43:23;;;;;;;7.18;4.05;;;0.90;99.90;;;;;;4999919;28;90341;-35
2022/04/02 00:45:49;;;;;;;4.13;3.75;;;0.90;99.90;;;;;;4999434;28;90170;-37
2022/04/02 00:48:14;;;;;;;5.22;4.50;;;0.90;99.90;;;;;;5000337;28;91581;-33
2022/04/02 00:50:40;;;;;;;5.97;4.47;;;0.90;99.90;;;;;;4999454;28;88217;-35
2022/04/02 00:53:06;;;;;;;3.90;3.58;;;0.80;99.90;;;;;;4999123;28;90275;-33
2022/04/02 00:55:32;;;;;;;5.35;4.85;;;0.80;99.90;;;;;;4998772;28;90056;-34
2022/04/02 00:57:58;;;;;;;7.68;4.35;;;0.90;99.90;;;;;;4998852;28;89467;-36
2022/04/02 01:00:25;;;;;;;5.18;4.53;;;0.90;99.90;;;;;;5000090;28;88678;-33
2022/04/02 01:02:51;;;;;;;6.45;4.35;;;0.90;99.90;;;;;;4998466;28;90258;-35
2022/04/02 01:05:17;;;;;;;4.18;3.78;;;1.00;99.90;;;;;;4999569;28;89876;-37
2022/04/02 01:07:43;;;;;;;5.82;4.50;;;1.00;99.90;;;;;;4999025;28;89450;-34
2022/04/02 01:10:08;;;;;;;4.93;3.95;;;1.00;99.90;;;;;;4998473;28;89513;-34
2022/04/02 01:12:34;;;;;;;11.63;4.38;;;1.10;99.90;;;;;;4999701;28;90559;-33
2022/04/02 01:14:59;;;;;;;3.40;3.10;;;1.10;99.90;;;;;;4998594;28;88805;-35
2022/04/02 01:17:25;;;;;;;6.65;4.05;;;1.20;99.90;;;;;;4999291;28;89778;-37
2022/04/02 01:19:51;;;;;;;4.47;3.35;;;1.20;99.90;;;;;;4980773;28;88651;-36
2022/04/02 01:22:16;;;;;;;7.75;4.15;;;1.20;99.90;;;;;;4998640;28;91381;-35
2022/04/02 01:24:42;;;;;;;4.45;3.58;;;1.20;99.90;;;;;;4998374;28;89509;-33
2022/04/02 01:27:08;;;;;;;4.45;4.07;;;1.20;99.90;;;;;;4998838;28;89618;-36
2022/04/02 01:29:34;;;;;;;5.57;4.35;;;1.10;99.90;;;;;;5000244;28;88258;-35
2022/04/02 01:32:00;;;;;;;6.07;4.00;;;1.00;99.90;;;;;;4998374;28;89490;-36
2022/04/02 01:34:28;;;;;;;5.25;4.10;;;1.00;99.90;;;;;;4999138;28;90524;-35
2022/04/02 01:36:54;;;;;;;5.13;3.95;;;0.90;99.90;;;;;;4998687;28;90790;-32
2022/04/02 01:39:20;;;;;;;4.95;3.70;;;0.80;99.90;;;;;;4998950;28;88796;-36
2022/04/02 01:41:46;;;;;;;4.57;4.18;;;0.70;99.90;;;;;;4999186;28;90306;-34
2022/04/02 01:44:11;;;;;;;5.50;4.00;;;0.70;99.90;;;;;;4999198;28;89769;-33
2022/04/02 01:46:37;;;;;;;5.28;4.25;;;0.60;99.90;;;;;;4997951;28;89441;-33
2022/04/02 01:49:03;;;;;;;7.30;4.00;;;0.60;99.90;;;;;;4983585;28;90546;-34
2022/04/02 01:51:29;;;;;;;5.68;4.40;;;0.60;99.90;;;;;;5002377;28;91376;-32
2022/04/02 01:53:54;;;;;;;7.05;4.30;;;0.60;99.90;;;;;;5002325;28;89476;-37
2022/04/02 01:56:20;;;;;;;4.90;4.22;;;0.50;99.90;;;;;;5002107;28;90083;-36
2022/04/02 01:58:46;;;;;;;5.88;4.47;;;0.60;99.90;;;;;;5001046;28;89281;-34
2022/04/02 02:01:11;;;;;;;4.18;3.78;;;0.50;99.90;;;;;;5002819;28;89490;-33
2022/04/02 02:03:37;;;;;;;4.60;3.78;;;0.50;99.90;;;;;;5001431;28;88798;-31
2022/04/02 02:06:02;;;;;;;4.90;4.25;;;0.50;99.90;;;;;;4984275;28;90089;-36
2022/04/02 02:08:29;;;;;;;6.40;4.00;;;0.40;99.90;;;;;;5001475;28;88320;-33
2022/04/02 02:10:55;;;;;;;5.13;4.38;;;0.50;99.90;;;;;;5001404;28;90842;-38
2022/04/02 02:13:22;;;;;;;7.68;4.43;;;0.40;99.90;;;;;;5001795;28;90292;-36
2022/04/02 02:15:47;;;;;;;5.13;3.72;;;0.40;99.90;;;;;;5001866;28;89649;-36
2022/04/02 02:18:13;;;;;;;4.80;4.25;;;0.40;99.90;;;;;;5002359;28;89391;-37
2022/04/02 02:20:39;;;;;;;5.00;4.28;;;0.40;99.90;;;;;;5001464;28;90031;-37
2022/04/02 02:23:04;;;;;;;4.78;4.30;;;0.40;99.90;;;;;;5000714;28;90798;-34
2022/04/02 02:25:30;;;;;;;5.15;3.97;;;0.40;99.90;;;;;;5002295;28;90377;-32
2022/04/02 02:27:56;;;;;;;4.97;4.32;;;0.50;99.90;;;;;;4982900;28;88797;-34
2022/04/02 02:30:22;;;;;;;6.45;4.93;;;0.40;99.90;;;;;;5001599;28;90531;-34
2022/04/02 02:32:48;;;;;;;6.28;4.28;;;0.40;99.90;;;;;;5000570;28;89614;-33
2022/04/02 02:38:14;;;;;;;6.82;4.65;;;0.30;99.90;;;;;;4955572;28;89165;-31
2022/04/02 02:40:41;;;;;;;4.75;4.22;;;0.20;99.90;;;;;;5001736;28;88860;-33
2022/04/02 02:43:08;;;;;;;5.60;5.00;;;0.30;99.90;;;;;;5001691;28;89634;-33
2022/04/02 02:45:34;;;;;;;6.85;5.18;;;0.30;99.90;;;;;;5000655;28;88421;-37
2022/04/02 02:48:01;;;;;;;9.07;5.13;;;0.30;99.90;;;;;;5000736;28;88846;-34
2022/04/02 02:50:28;;;;;;;6.82;4.93;;;0.30;99.90;;;;;;5001739;28;91549;-33
2022/04/02 02:52:53;;;;;;;7.35;5.00;;;0.30;99.90;;;;;;5000791;28;89837;-35
2022/04/02 02:55:19;;;;;;;6.93;4.97;;;0.30;99.90;;;;;;5001597;28;89662;-34
2022/04/02 02:57:46;;;;;;;6.38;4.90;;;0.30;99.90;;;;;;5001269;28;89851;-32
2022/04/02 03:00:13;;;;;;;5.75;4.63;;;0.30;99.90;;;;;;5000185;28;91778;-34
2022/04/02 03:02:39;;;;;;;5.50;4.68;;;0.20;99.90;;;;;;5001116;28;89701;-33
2022/04/02 03:05:13;;;;;;;4.50;4.10;;;0.20;99.90;;;;;;5001804;28;89435;-34
2022/04/02 03:07:49;;;;;;;9.43;3.97;;;0.20;99.90;;;;;;5000690;28;89871;-38
2022/04/02 03:10:19;;;;;;;7.10;4.68;;;0.20;99.90;;;;;;5001091;28;90399;-34
2022/04/02 03:12:46;;;;;;;6.05;4.75;;;0.20;99.90;;;;;;5000441;28;90589;-34
2022/04/02 03:15:13;;;;;;;5.40;4.65;;;0.20;99.90;;;;;;5001192;28;90057;-33
2022/04/02 03:17:39;;;;;;;4.88;4.13;;;0.10;99.90;;;;;;5001107;28;89249;-33
2022/04/02 03:20:06;;;;;;;5.05;4.45;;;0.10;99.90;;;;;;4982644;28;90677;-34
2022/04/02 03:22:39;;;;;;;8.15;5.35;;;0.00;99.90;;;;;;4981486;28;89541;-33
2022/04/02 03:25:06;;;;;;;7.57;4.63;;;0.00;99.90;;;;;;5000825;28;90131;-37
2022/04/02 03:27:32;;;;;;;6.43;5.10;;;0.00;99.90;;;;;;5000535;28;88717;-35
2022/04/02 03:29:57;;;;;;;7.68;4.85;;;0.00;99.90;;;;;;4999958;28;91176;-35
2022/04/02 03:32:23;;;;;;;10.05;5.75;;;0.00;99.90;;;;;;5000542;28;89700;-35
2022/04/02 03:34:48;;;;;;;4.60;4.10;;;0.00;99.90;;;;;;4999562;28;89967;-35
2022/04/02 03:37:14;;;;;;;5.55;5.05;;;0.00;99.90;;;;;;5000059;28;89276;-36
2022/04/02 03:39:41;;;;;;;8.38;4.90;;;0.00;99.90;;;;;;5000299;28;88830;-33
2022/04/02 03:42:07;;;;;;;6.97;4.75;;;0.00;99.90;;;;;;4982161;28;91752;-33
2022/04/02 03:44:33;;;;;;;8.15;4.85;;;0.00;99.90;;;;;;5000385;28;90223;-35
2022/04/02 03:47:11;;;;;;;5.43;4.88;;;0.00;99.90;;;;;;5000209;28;89937;-33
2022/04/02 03:49:40;;;;;;;13.07;5.35;;;0.00;99.90;;;;;;5000122;28;90992;-32
2022/04/02 03:52:07;;;;;;;6.43;5.13;;;0.00;99.90;;;;;;5000125;28;89637;-32
2022/04/02 03:54:35;;;;;;;7.05;5.15;;;0.00;99.90;;;;;;5000111;28;90339;-37
2022/04/02 03:57:02;;;;;;;10.18;5.93;;;0.00;99.90;;;;;;5000081;28;89935;-32
2022/04/02 03:59:28;;;;;;;6.28;5.68;;;0.00;99.90;;;;;;5000215;28;90568;-33
2022/04/02 04:01:53;;;;;;;9.57;5.15;;;-0.10;99.90;;;;;;4998785;28;89520;-33
2022/04/02 04:04:19;;;;;;;5.88;5.05;;;-0.10;99.90;;;;;;5000460;28;90459;-33
2022/04/02 04:06:45;;;;;;;8.00;6.07;;;-0.10;99.90;;;;;;5000239;28;89275;-35
2022/04/02 04:09:10;;;;;;;8.98;5.90;;;-0.20;99.90;;;;;;4999854;28;90120;-37
2022/04/02 04:11:36;;;;;;;6.03;5.40;;;-0.10;99.90;;;;;;4999164;28;89657;-34
2022/04/02 04:14:01;;;;;;;6.13;5.53;;;-0.10;99.90;;;;;;4999603;28;89620;-37
2022/04/02 04:16:27;;;;;;;8.85;5.60;;;-0.20;99.90;;;;;;5000381;28;89663;-35
2022/04/02 04:18:52;;;;;;;8.35;5.45;;;-0.20;99.90;;;;;;4998817;28;97606;-32
2022/04/02 04:21:18;;;;;;;6.30;5.70;;;-0.20;99.90;;;;;;4999597;28;95749;-34
2022/04/02 04:23:44;;;;;;;5.90;5.35;;;-0.20;99.90;;;;;;4998865;28;90000;-33
2022/04/02 04:26:11;;;;;;;7.40;4.80;;;-0.20;99.90;;;;;;4999814;28;88338;-32
2022/04/02 04:28:37;;;;;;;7.60;5.03;;;-0.20;99.90;;;;;;4999873;28;90234;-32
2022/04/02 04:31:04;;;;;;;7.55;4.97;;;-0.20;99.90;;;;;;4999355;28;89724;-32
2022/04/02 04:33:30;;;;;;;5.82;5.22;;;-0.20;99.90;;;;;;4999181;28;89594;-34
2022/04/02 04:35:56;;;;;;;7.10;5.32;;;-0.20;99.90;;;;;;5000155;28;88517;-32
2022/04/02 04:38:22;;;;;;;8.57;6.18;;;-0.20;99.90;;;;;;4999237;28;90493;-32
2022/04/02 04:40:47;;;;;;;7.78;5.28;;;-0.20;99.90;;;;;;4999792;28;89674;-34
2022/04/02 04:43:13;;;;;;;9.10;5.50;;;-0.20;99.90;;;;;;4999212;28;89775;-32
2022/04/02 04:45:38;;;;;;;6.93;5.57;;;-0.20;99.90;;;;;;4999479;28;89213;-38
2022/04/02 04:48:04;;;;;;;9.38;5.63;;;-0.30;99.90;;;;;;4999785;28;89962;-34
2022/04/02 04:50:30;;;;;;;17.10;5.90;;;-0.30;99.90;;;;;;4998509;28;89235;-36
2022/04/02 04:52:56;;;;;;;7.93;5.25;;;-0.30;99.90;;;;;;4999064;28;91215;-34
2022/04/02 04:55:22;;;;;;;6.95;5.10;;;-0.30;99.90;;;;;;4999666;28;87505;-33
2022/04/02 04:57:51;;;;;;;7.15;5.97;;;-0.30;99.90;;;;;;4999713;28;90309;-35
2022/04/02 05:00:17;;;;;;;12.80;5.82;;;-0.30;99.90;;;;;;4999880;28;89584;-36
2022/04/02 05:02:44;;;;;;;5.13;4.70;;;-0.30;99.90;;;;;;4999253;28;91345;-32
2022/04/02 05:05:12;;;;;;;7.53;4.93;;;-0.30;99.90;;;;;;4999281;28;89110;-33
2022/04/02 05:07:41;;;;;;;5.93;4.90;;;-0.20;99.90;;;;;;4999513;28;90703;-36
2022/04/02 05:10:08;;;;;;;5.00;4.57;;;-0.30;99.90;;;;;;4999922;28;88493;-37
2022/04/02 05:12:34;;;;;;;13.40;5.22;;;-0.20;99.90;;;;;;4999386;28;89974;-32
2022/04/02 05:15:00;;;;;;;6.85;4.82;;;-0.20;99.90;;;;;;4964295;28;88913;-32
2022/04/02 05:17:25;;;;;;;11.48;5.22;;;-0.20;99.90;;;;;;4998927;28;90548;-33
2022/04/02 05:19:52;;;;;;;6.72;5.30;;;-0.20;99.90;;;;;;4998966;28;89373;-32
2022/04/02 05:22:17;;;;;;;5.28;4.65;;;-0.20;99.90;;;;;;5000333;28;88887;-34
2022/04/02 05:24:43;;;;;;;10.63;5.93;;;-0.20;99.90;;;;;;5002886;28;89352;-35
2022/04/02 05:27:09;;;;;;;10.35;5.45;;;-0.20;99.90;;;;;;5001580;28;90229;-31
2022/04/02 05:29:35;;;;;;;7.25;5.20;;;-0.10;99.90;;;;;;5002467;28;89867;-34
2022/04/02 05:32:01;;;;;;;8.40;4.70;;;-0.10;99.90;;;;;;5002479;28;89997;-34
2022/04/02 05:34:26;;;;;;;7.07;5.65;;;-0.10;99.90;;;;;;5002884;28;89348;-32
2022/04/02 05:36:52;;;;;;;5.95;5.35;;;-0.10;99.90;;;;;;5002183;28;90348;-33
2022/04/02 05:39:17;;;;;;;8.00;5.70;;;0.00;99.90;;;;;;5001133;28;91011;-33
2022/04/02 05:41:43;;;;;;;7.93;5.20;;;0.00;99.90;;;;;;5002316;28;90449;-32
2022/04/02 05:44:09;;;;;;;5.82;4.63;;;0.00;99.90;;;;;;5002512;28;88424;-32
2022/04/02 05:46:35;;;;;;;6.85;5.20;;;0.10;99.90;;;;;;5002554;28;90321;-37
2022/04/02 05:49:01;;;;;;;7.55;4.72;;;0.00;99.90;;;;;;5002584;28;91076;-32
2022/04/02 05:51:26;;;;;;;8.00;5.25;;;0.10;99.90;;;;;;5002154;28;89576;-33
2022/04/02 05:53:52;;;;;;;15.40;5.80;;;0.10;99.90;;;;;;4984446;28;88247;-36
2022/04/02 05:56:19;;;;;;;6.47;5.88;;;0.20;99.90;;;;;;5002341;28;90220;-35
2022/04/02 05:58:45;;;;;;;7.35;5.60;;;0.20;99.90;;;;;;5001807;28;89733;-34
2022/04/02 06:01:11;;;;;;;7.40;5.50;;;0.30;99.90;;;;;;5002086;28;89003;-31
2022/04/02 06:03:39;;;;;;;9.20;5.70;;;0.30;99.90;;;;;;5001407;28;89487;-32
2022/04/02 06:06:09;;;;;;;7.18;6.18;;;0.30;99.90;;;;;;5001711;28;90184;-36
2022/04/02 06:08:34;;;;;;;6.88;5.40;;;0.40;99.90;;;;;;5001397;28;89773;-37
2022/04/02 06:11:01;;;;;;;7.47;5.63;;;0.50;99.90;;;;;;5002006;28;89449;-36
2022/04/02 06:13:27;;;;;;;5.70;5.00;;;0.50;99.90;;;;;;5001562;28;88361;-33
2022/04/02 06:15:53;;;;;;;12.32;6.32;;;0.50;99.90;;;;;;5001093;28;89598;-37
2022/04/02 06:18:19;;;;;;;8.70;5.55;;;0.50;99.90;;;;;;4984008;28;89589;-34
2022/04/02 06:20:45;;;;;;;6.95;5.28;;;0.60;99.90;;;;;;5001439;28;88537;-32
2022/04/02 06:23:13;;;;;;;8.32;6.47;;;0.60;99.90;;;;;;5002258;28;87833;-33
2022/04/02 06:25:38;;;;;;;10.88;6.28;;;0.70;99.90;;;;;;5001565;28;90067;-32
2022/04/02 06:28:04;;;;;;;8.18;5.97;;;0.80;99.90;;;;;;5000786;28;91218;-35
2022/04/02 06:30:30;;;;;;;7.55;5.78;;;0.80;99.90;;;;;;5002173;28;89934;-32
2022/04/02 06:32:56;;;;;;;19.85;18.08;;;0.80;99.90;;;;;;5001096;28;89634;-34
2022/04/02 06:35:21;;;;;;;6.63;5.93;;;0.90;99.90;;;;;;5000293;28;90836;-37
2022/04/02 06:37:48;;;;;;;7.40;6.38;;;1.00;99.90;;;;;;5001175;28;89672;-33
2022/04/02 06:40:14;;;;;;;6.70;5.50;;;1.10;99.90;;;;;;5001162;28;89498;-32
2022/04/02 06:42:40;;;;;;;8.52;6.18;;;1.10;99.90;;;;;;5001865;28;89097;-36
2022/04/02 06:45:07;;;;;;;5.88;5.30;;;1.20;99.90;;;;;;5001524;28;89366;-36
2022/04/02 06:47:33;;;;;;;10.20;6.55;;;1.30;99.90;;;;;;5001285;28;90228;-34
2022/04/02 06:50:05;;;;;;;9.02;6.43;;;1.40;99.90;;;;;;5000813;28;89717;-34
2022/04/02 06:52:32;;;;;;;11.00;6.65;;;1.50;99.90;;;;;;5001235;28;90744;-36
2022/04/02 06:54:58;;;;;;;7.60;4.88;;;1.70;99.90;;;;;;5001226;28;89601;-33
2022/04/02 06:57:23;;;;;;;6.88;5.20;;;1.80;99.90;;;;;;5000872;28;89150;-36
2022/04/02 06:59:49;;;;;;;6.45;5.78;;;2.00;99.90;;;;;;5001279;28;89635;-37
2022/04/02 07:02:21;;;;;;;9.95;5.45;;;2.10;99.90;;;;;;5001274;28;89271;-34
2022/04/02 07:04:47;;;;;;;6.72;6.03;;;2.20;99.90;;;;;;5000891;28;90403;-32
2022/04/02 07:07:13;;;;;;;6.97;5.75;;;2.30;99.90;;;;;;5000863;28;90010;-35
2022/04/02 07:09:39;;;;;;;6.45;5.65;;;2.40;99.90;;;;;;5001023;28;89448;-33
2022/04/02 07:12:05;;;;;;;10.35;5.57;;;2.50;99.90;;;;;;5001372;28;88689;-34
2022/04/02 07:14:32;;;;;;;10.32;6.20;;;2.60;99.90;;;;;;5000428;28;91618;-32
2022/04/02 07:16:58;;;;;;;9.55;5.72;;;2.70;99.90;;;;;;5000563;28;90244;-32
2022/04/02 07:19:25;;;;;;;7.93;5.57;;;2.80;99.90;;;;;;4983092;28;90445;-32
2022/04/02 07:21:54;;;;;;;7.22;6.07;;;2.90;99.90;;;;;;5000444;28;89572;-31
2022/04/02 07:24:21;;;;;;;7.43;6.00;;;3.10;99.90;;;;;;5000460;28;90596;-33
2022/04/02 07:26:47;;;;;;;4.93;4.38;;;3.10;99.90;;;;;;4999427;28;90097;-33
2022/04/02 07:29:14;;;;;;;5.05;4.00;;;3.30;99.90;;;;;;4982449;28;90996;-32
2022/04/02 07:31:41;;;;;;;7.65;5.25;;;3.20;99.90;;;;;;5000591;28;87965;-37
2022/04/02 07:34:07;;;;;;;7.97;5.10;;;3.30;99.90;;;;;;5000650;28;89181;-34
2022/04/02 07:36:52;;;;;;;6.93;4.75;;;3.40;99.90;;;;;;5001266;28;90113;-32
2022/04/02 07:39:42;;;;;;;7.93;4.55;;;3.50;99.90;;;;;;5000770;28;90158;-31
2022/04/02 07:42:26;;;;;;;8.68;4.63;;;3.50;99.90;;;;;;4999336;28;89982;-34
2022/04/02 07:45:11;;;;;;;4.18;3.50;;;3.60;99.90;;;;;;4999703;28;89874;-38
2022/04/02 07:47:39;;;;;;;5.40;4.70;;;3.60;99.90;;;;;;5000231;28;89972;-32
2022/04/02 07:50:13;;;;;;;4.78;4.32;;;3.70;99.90;;;;;;4950676;28;89325;-33
2022/04/02 07:52:44;;;;;;;5.35;4.40;;;3.80;99.90;;;;;;4999962;28;88429;-33
2022/04/02 07:55:10;;;;;;;7.25;5.80;;;3.70;99.90;;;;;;5000119;28;90695;-33
2022/04/02 07:57:40;;;;;;;6.22;4.80;;;3.90;99.90;;;;;;5000103;28;89678;-34
2022/04/02 08:00:10;;;;;;;6.13;5.38;;;4.00;99.90;;;;;;5000621;28;89433;-35
2022/04/02 08:02:38;;;;;;;7.32;4.75;;;4.20;99.90;;;;;;5000691;28;88373;-33
2022/04/02 08:05:07;;;;;;;6.05;5.55;;;4.20;99.90;;;;;;5000093;28;92008;-34
2022/04/02 08:07:35;;;;;;;7.13;5.22;;;4.40;99.90;;;;;;4999378;28;90579;-35
2022/04/02 08:10:05;;;;;;;6.80;5.97;;;4.60;99.90;;;;;;4999863;28;90948;-34
2022/04/02 08:12:33;;;;;;;6.35;5.72;;;4.70;99.90;;;;;;5000326;28;90186;-34
2022/04/02 08:14:59;;;;;;;5.50;5.00;;;4.80;99.90;;;;;;4999776;28;90189;-32
2022/04/02 08:17:26;;;;;;;6.88;4.10;;;5.00;99.90;;;;;;5000382;28;90635;-35
2022/04/02 08:19:53;;;;;;;6.25;3.28;;;4.80;99.90;;;;;;4999300;28;89785;-33
2022/04/02 08:22:19;;;;;;;5.78;4.30;;;5.00;99.90;;;;;;4999444;28;88724;-35
2022/04/02 08:24:45;;;;;;;6.13;4.72;;;5.10;99.90;;;;;;5000651;28;89511;-35
2022/04/02 08:27:32;;;;;;;5.50;4.10;;;5.10;99.90;;;;;;4982016;28;89689;-33
2022/04/02 08:30:10;;;;;;;3.17;2.88;;;5.00;99.90;;;;;;4998872;28;89501;-34
2022/04/02 08:32:56;;;;;;;3.33;3.03;;;5.10;99.90;;;;;;4999148;28;89669;-34
2022/04/02 08:35:45;;;;;;;5.55;4.45;;;5.10;99.90;;;;;;4998789;28;90767;-32
2022/04/02 08:38:27;;;;;;;3.80;3.33;;;5.30;99.90;;;;;;4977570;28;89484;-37
2022/04/02 08:41:31;;;;;;;5.30;3.15;;;5.20;99.90;;;;;;4998914;28;91148;-35
2022/04/02 08:44:23;;;;;;;4.20;3.60;;;5.40;99.90;;;;;;4998458;28;90186;-38
2022/04/02 08:47:37;;;;;;;7.80;4.13;;;5.30;99.90;;;;;;4998509;28;90214;-35
2022/04/02 08:50:11;;;;;;;5.03;3.75;;;5.60;99.90;;;;;;4985519;28;90062;-36
2022/04/02 08:52:52;;;;;;;6.00;4.25;;;5.60;99.90;;;;;;4997194;28;90160;-35
2022/04/02 08:55:20;;;;;;;3.83;3.45;;;5.70;99.90;;;;;;4996930;28;88017;-35
2022/04/02 08:57:54;;;;;;;5.30;3.53;;;5.90;99.90;;;;;;4996153;28;90179;-35
2022/04/02 09:00:24;;;;;;;5.13;3.85;;;5.50;99.90;;;;;;4996029;28;91086;-33
2022/04/02 09:03:33;;;;;;;6.28;3.97;;;5.90;99.90;;;;;;4996395;28;90383;-34
2022/04/02 09:06:27;;;;;;;6.07;3.78;;;6.00;99.90;;;;;;4996921;28;88878;-32
2022/04/02 09:09:06;;;;;;;5.38;4.50;;;5.60;99.90;;;;;;4996604;28;90898;-36
2022/04/02 09:11:56;;;;;;;4.40;3.00;;;5.70;99.90;;;;;;4996700;28;89710;-37
2022/04/02 09:14:59;;;;;;;3.80;3.38;;;6.20;99.90;;;;;;4997034;28;89612;-33
2022/04/02 09:17:30;;;;;;;5.72;3.70;;;6.10;99.90;;;;;;4996947;28;88221;-35
2022/04/02 09:20:30;;;;;;;4.00;3.65;;;6.50;99.90;;;;;;4996280;28;90530;-34
2022/04/02 09:23:21;;;;;;;5.97;3.80;;;6.50;99.90;;;;;;4996072;28;89479;-33
2022/04/02 09:26:13;;;;;;;3.50;3.20;;;6.80;99.90;;;;;;4996685;28;89934;-35
2022/04/02 09:28:46;;;;;;;4.82;3.80;;;7.10;99.90;;;;;;4996442;28;89661;-33
2022/04/02 09:31:21;;;;;;;3.22;2.92;;;7.00;99.90;;;;;;4996709;28;88831;-32
2022/04/02 09:34:05;;;;;;;3.92;3.22;;;6.90;99.90;;;;;;4996167;28;89741;-35
2022/04/02 09:36:59;;;;;;;3.78;3.17;;;6.20;94.30;;;;;;4996344;28;90538;-35
2022/04/02 09:39:51;;;;;;;8.70;3.35;;;5.60;92.40;;;;;;4996629;28;88920;-35
2022/04/02 09:42:37;;;;;;;4.57;3.72;;;5.60;99.90;;;;;;4996192;28;90533;-35
2022/04/02 09:45:10;;;;;;;3.63;2.90;;;5.10;99.90;;;;;;4996281;28;90572;-34
2022/04/02 09:47:48;;;;;;;5.85;3.42;;;4.90;99.90;;;;;;4996245;28;90390;-34
2022/04/02 09:50:15;;;;;;;;;;;4.50;99.90;;;;;;4997524;28;87852;-34
2022/04/02 09:52:49;;;;;;;5.00;2.45;;;4.30;99.90;;;;;;4997668;28;90107;-34
2022/04/02 09:55:20;;;;;;;5.55;2.72;;;4.40;99.90;;;;;;4996261;28;91542;-37
2022/04/02 09:57:45;;;;;;;5.90;2.78;;;4.40;99.90;;;;;;4996745;28;90657;-34
2022/04/02 10:00:16;;;;;;;3.88;3.58;;;4.40;99.90;;;;;;4996144;28;88421;-34
2022/04/02 10:02:47;;;;;;;5.15;3.63;;;4.50;99.90;;;;;;4996151;28;90251;-34
2022/04/02 10:05:19;;;;;;;2.85;2.65;;;4.60;99.90;;;;;;4995740;28;89577;-32
2022/04/02 10:07:47;;;;;;;4.93;2.17;;;4.40;99.90;;;;;;4993384;28;88437;-34
2022/04/02 10:10:14;;;;;;;;;;;4.30;99.90;;;;;;4999819;28;89404;-33
2022/04/02 10:12:44;;;;;;;3.20;2.90;;;4.40;99.90;;;;;;5000405;28;90285;-35
2022/04/02 10:15:13;;;;;;;5.32;4.82;;;4.50;99.90;;;;;;4999958;28;89715;-32
2022/04/02 10:17:39;;;;;;;3.55;3.08;;;4.60;99.90;;;;;;4998757;28;90133;-33
2022/04/02 10:20:08;;;;;;;4.38;2.45;;;4.50;99.90;;;;;;4998798;28;90081;-34
2022/04/02 10:22:43;;;;;;;2.75;2.53;;;4.50;99.90;;;;;;4999920;28;90483;-35
2022/04/02 10:25:11;;;;;;;4.05;2.80;;;4.50;99.90;;;;;;4999437;28;91597;-33
2022/04/02 10:27:43;;;;;;;3.05;2.85;;;4.80;99.90;;;;;;4999258;28;89538;-33
2022/04/02 10:30:14;;;;;;;5.10;2.10;;;5.00;99.90;;;;;;4999394;28;89266;-33
2022/04/02 10:35:43;;;;;;;4.50;2.83;;;5.70;95.80;;;;;;4998867;28;89907;-34
2022/04/02 10:38:32;;;;;;;1.98;1.80;;;5.90;95.00;;;;;;5000315;28;88084;-33
2022/04/02 10:40:58;;;;;;;2.38;2.17;;;6.10;87.90;;;;;;4992189;28;89559;-35
2022/04/02 10:43:27;;;;;;;2.40;2.20;;;6.10;92.40;;;;;;4999189;28;90120;-36
2022/04/02 10:45:53;;;;;;;2.85;2.63;;;6.30;99.90;;;;;;4998190;28;91236;-35
2022/04/02 10:48:27;;;;;;;6.28;3.00;;;6.30;99.90;;;;;;4980967;28;90691;-33
2022/04/02 10:50:55;;;;;;;3.08;2.42;;;6.30;99.90;;;;;;4999708;28;88915;-35
2022/04/02 10:53:22;;;;;;;5.32;2.80;;;6.50;99.90;;;;;;4998513;28;90517;-35
2022/04/02 10:55:52;;;;;;;3.58;3.22;;;6.30;99.90;;;;;;4998523;28;89793;-37
2022/04/02 10:58:21;;;;;;;5.43;4.05;;;6.10;99.90;;;;;;4998845;28;90445;-33
2022/04/02 11:00:47;;;;;;;4.50;3.80;;;5.90;99.90;;;;;;4998755;28;89165;-37
2022/04/02 11:03:42;;;;;;;3.20;2.90;;;5.90;99.90;;;;;;4999310;28;91040;-36
2022/04/02 11:06:08;;;;;;;3.85;2.65;;;5.90;99.90;;;;;;4998754;28;91385;-34
2022/04/02 11:08:34;;;;;;;4.80;3.38;;;5.80;99.90;;;;;;4998507;28;89787;-36
2022/04/02 11:11:24;;;;;;;4.45;2.85;;;5.70;99.90;;;;;;4998830;28;89331;-36
2022/04/02 11:14:01;;;;;;;4.78;3.50;;;5.60;99.90;;;;;;4998948;28;90271;-36
2022/04/02 11:16:40;;;;;;;15.32;4.10;;;5.20;99.90;;;;;;4999013;28;90140;-34
2022/04/02 11:22:02;;;;;;;5.65;3.15;;;5.30;99.90;;;;;;4997501;28;91096;-35
2022/04/02 11:24:34;;;;;;;6.10;3.35;;;5.20;99.90;;;;;;4998897;28;89121;-37
2022/04/02 11:27:01;;;;;;;4.68;2.85;;;5.20;99.90;;;;;;4997915;28;89752;-33
2022/04/02 11:29:29;;;;;;;4.10;2.88;;;4.80;99.90;;;;;;4998776;28;88879;-38
2022/04/02 11:31:58;;;;;;;2.67;2.42;;;4.70;99.90;;;;;;4999141;28;88760;-32
2022/04/02 11:34:27;;;;;;;6.07;3.00;;;4.80;99.90;;;;;;4998855;28;90378;-34
2022/04/02 11:37:00;;;;;;;3.33;3.08;;;4.80;99.90;;;;;;4997118;28;90558;-36
2022/04/02 11:39:49;;;;;;;3.13;2.42;;;4.90;99.90;;;;;;4997692;28;90069;-34
2022/04/02 11:42:17;;;;;;;2.30;2.10;;;4.90;99.90;;;;;;4998761;28;88436;-34
2022/04/02 11:44:51;;;;;;;3.78;3.20;;;5.30;99.90;;;;;;4998265;28;90694;-34
2022/04/02 11:47:29;;;;;;;4.97;3.28;;;5.40;99.90;;;;;;4997339;28;90142;-35
2022/04/02 11:50:04;;;;;;;8.45;3.33;;;5.00;99.90;;;;;;4997648;28;90094;-36
2022/04/02 11:52:49;;;;;;;3.90;3.00;;;4.20;99.90;;;;;;4998986;28;89544;-36
2022/04/02 11:55:15;;;;;;;9.18;5.50;;;4.10;99.90;;;;;;4998341;28;90429;-35
2022/04/02 11:57:59;;;;;;;12.75;6.65;;;4.00;99.90;;;;;;4996831;28;89448;-33
2022/04/02 12:00:33;;;;;;;12.75;9.60;;;3.80;99.90;;;;;;4998649;28;89226;-35
2022/04/02 12:02:59;;;;;;;9.15;7.57;;;3.70;99.90;;;;;;4997571;28;90614;-32
2022/04/02 12:05:42;;;;;;;7.63;3.53;;;3.90;99.90;;;;;;4996896;28;90783;-33
2022/04/02 12:08:10;;;;;;;3.42;3.13;;;4.10;99.90;;;;;;4997284;28;89655;-36
2022/04/02 12:10:44;;;;;;;7.00;3.05;;;4.30;99.90;;;;;;4996830;28;89489;-34
2022/04/02 12:13:10;;;;;;;2.58;2.38;;;4.60;99.90;;;;;;4998232;28;88088;-33
2022/04/02 12:15:36;;;;;;;2.88;2.67;;;4.60;99.90;;;;;;4996520;28;90628;-35
2022/04/02 12:18:07;;;;;;;4.05;3.22;;;4.80;99.90;;;;;;4997717;28;89629;-36
2022/04/02 12:20:38;;;;;;;3.20;2.67;;;4.80;99.90;;;;;;4979101;28;89285;-35
2022/04/02 12:23:13;;;;;;;8.10;3.60;;;5.00;99.90;;;;;;5030234;22;89313;-35
2022/04/02 12:25:57;;;;;;;4.10;3.30;;;5.10;99.90;;;;;;4997159;28;89095;-35
2022/04/02 12:28:23;;;;;;;4.43;3.42;;;5.10;99.90;;;;;;4958839;28;91247;-33
2022/04/02 12:30:51;;;;;;;6.55;3.03;;;5.10;99.90;;;;;;4977154;28;90505;-34
2022/04/02 12:33:25;;;;;;;3.13;2.93;;;5.20;99.90;;;;;;4976099;28;88557;-35
2022/04/02 12:36:08;;;;;;;5.38;3.20;;;5.60;99.90;;;;;;4975797;28;90193;-36
2022/04/02 12:38:36;;;;;;;5.30;2.92;;;6.10;99.90;;;;;;4977628;28;89481;-35
2022/04/02 12:41:04;;;;;;;2.83;2.37;;;6.80;99.90;;;;;;4976737;28;88980;-32
2022/04/02 12:43:37;;;;;;;2.40;2.20;;;6.50;99.90;;;;;;4977000;28;89810;-33
2022/04/02 12:46:03;;;;;;;5.50;2.97;;;6.10;99.90;;;;;;4976617;28;92232;-31
2022/04/02 12:48:41;;;;;;;4.05;2.00;;;5.90;99.90;;;;;;4976456;28;90325;-33
2022/04/02 12:51:12;;;;;;;4.63;2.45;;;5.60;99.90;;;;;;4977226;28;89533;-33
2022/04/02 12:53:40;;;;;;;3.42;2.28;;;5.50;99.90;;;;;;4976104;28;89219;-35
2022/04/02 12:56:16;;;;;;;3.80;3.42;;;5.10;99.90;;;;;;4975842;28;89488;-33
2022/04/02 12:58:44;;;;;;;3.08;2.88;;;5.10;93.20;;;;;;4976704;28;89592;-33
2022/04/02 13:01:32;;;;;;;4.25;3.33;;;5.00;92.90;;;;;;4977072;28;89622;-34
2022/04/02 13:04:09;;;;;;;2.63;2.33;;;5.20;99.90;;;;;;4976805;28;88419;-35
2022/04/02 13:06:39;;;;;;;4.63;3.08;;;5.40;99.90;;;;;;4975881;28;89410;-33
2022/04/02 13:09:21;;;;;;;2.67;1.98;;;5.60;99.90;;;;;;4976861;28;89893;-37
2022/04/02 13:11:52;;;;;;;5.05;2.72;;;5.60;99.90;;;;;;4976807;28;89636;-32
2022/04/02 13:14:24;;;;;;;2.05;1.60;;;5.80;95.80;;;;;;4977212;28;89507;-37
2022/04/02 13:17:05;;;;;;;3.15;2.53;;;6.00;97.10;;;;;;4976038;28;89446;-36
2022/04/02 13:22:29;;;;;;;3.78;3.47;;;6.20;90.00;;;;;;4976047;28;90050;-33